首页
METAR-TAF:

METAR-TAF

机场 :

Haines, 阿拉斯加州, 美国

纬度: 59-15N, 经度: 135-31W, 海拔: 5米

当前天气观测

该预报发布于27分钟前的22:54 UTC
风速8节,风向,有时为14节阵风
温度 12°C
湿度 67%
气压 1018 hPa
能見度: 16.1公里
少量云层高于5000英尺
多云层高于6000英尺
多云层高于7500英尺
小雨

METAR: PAHN 032254Z AUTO 10008G14KT 10SM -RA FEW050 BKN060 BKN075 12/06 A3005 RMK RAB25 SLP179 P0000 T01220056 TSNO VIA AUTODIAL

时间: 15:21 (23:21 UTC)

预报

该预报发布于4小时和21分钟前的19:00 UTC
预报有效从03日的 19点(UTC)到 04日的 18点(UTC)
风速12节,风向,有时为22节阵风
能見度: 10公里
散云层高于2500英尺
多云层高于3500英尺
阴天层高于5000英尺
从 04日的 0400点(UTC)
风速7节,风向
能見度: 10公里
多云层高于5000英尺

TAF: PAHN 031900Z 0319/0418 10012G22KT P6SM SCT025 BKN035 OVC050 FM040400 10007KT P6SM BKN050 AMD LTD TO CLD VIS AND WIND

超过4000个机场的气象观测和天气预报(METAR&TAF报告)。

可查询的气象台以黄色和红色小点在地图上表示。

将鼠标移到小点上方,可查看气象台名称。

然后点击查看天气观测和预报。

如需切换地图:点击带黑十字的绿色按钮放大地图;点击带横线的绿色按钮缩小地图;或者点击绿色箭头查看邻近地区的地图。


METAR-TAF: